Alpine, Wyoming
Current Conditions -  °F | °C
As of 5:55 AM on Saturday 20 Dec 2014 (Local Time) from KAFO Reporting Station
Light Snow Light Snow  
Wind Chill: -2°   Ceiling: 2800
Heat Index: -2°   Visibility: 3mi
Dew Point: -2°   Wind: 0mph
Humidity: 100%   Direction: NA
Pressure: 30.04"   Gusts: NA
Location:  43.18°N, 111.03°W
Report Text: KAFO 201255Z AUTO 00000KT 3SM -SN SCT002 BKN028 OVC033 M02/M02 A3004 RMK AO2
Loading
Personal Weather Stations






























Interactive Weather Map New forecast layout! Learn more

10-Day Weather Forecast

Advertisements
Track Severe Weather on mobile